^^
Datos históricos de la estación: Murcia-Puente Tocinos
Diario Informe para Septiembre 26, 2019 Unidades:  Ingés    Métrico   Ambas
Diario Semanal Mensual Anual
  Máxima: Mínima: Promedio:
Temperatura: 71.6 °F 51.6 °F 60.4 °F
Punto de rocio: 55.2 °F 47.1 °F 50.5 °F
Humedad: 85% 44% 71%
Velocidad viento: 8.7mph 0mph 4mph
Racha viento: 17.3mph - -
Viento- - SSO
Presión: 30 in 29.8 in -
Precipitación: 0 in    
 
 
Tabla de datos para Septiembre 26, 2019
Hora Temperatura Punto de rocio Presión Viento Velocidad viento Racha viento Humedad Intensidad lluvia(por hora) Nubes
00:04 58.6 °F 50.5 °F 30 in SE 3.1 mph 6.2 mph 74.3% 0 in
00:09 57.9 °F 50.5 °F 30 in SSE 3.1 mph 9.2 mph 76% 0 in
00:14 57.7 °F 50.5 °F 30 in Sur 4.5 mph 9 mph 77% 0 in
00:19 57.7 °F 50.5 °F 30 in Sur 5.2 mph 7 mph 77% 0 in
00:24 57.7 °F 50.5 °F 30 in Sur 4.8 mph 7 mph 77% 0 in
00:29 57.7 °F 50.7 °F 30 in SSO 4.7 mph 7 mph 77% 0 in
00:34 58.1 °F 50.7 °F 30 in SSE 4 mph 6 mph 76.3% 0 in
00:39 58.1 °F 50.5 °F 30 in ENE 3.6 mph 3 mph 76% 0 in
00:44 57.9 °F 50.5 °F 30 in Este 2.4 mph 3.6 mph 76.3% 0 in
00:49 57.7 °F 50.5 °F 30 in ESE 1.8 mph 4 mph 77% 0 in
00:54 57.6 °F 50.4 °F 30 in NNO 1.8 mph 4 mph 77.2% 0 in
00:59 57.2 °F 50.4 °F 30 in NO 1.8 mph 4 mph 78% 0 in
01:04 56.8 °F 50.2 °F 30 in NO 1.8 mph 4 mph 78.3% 0 in
01:09 56.8 °F 50.4 °F 30 in NO 1.8 mph 5.8 mph 79% 0 in
01:14 56.8 °F 50.4 °F 30 in Oeste 2.2 mph 6 mph 79% 0 in
01:19 56.7 °F 50.2 °F 30 in SSO 2.4 mph 5.9 mph 79% 0 in
01:24 56.7 °F 50.2 °F 30 in SSO 2.7 mph 6 mph 79.2% 0 in
01:29 56.7 °F 50.4 °F 30 in OSO 2.9 mph 5 mph 79.3% 0 in
01:34 56.7 °F 50.2 °F 30 in OSO 2.9 mph 5 mph 79% 0 in
01:39 56.7 °F 50 °F 30 in OSO 2.9 mph 5 mph 79% 0 in
01:44 56.5 °F 50 °F 30 in OSO 2.2 mph 4 mph 79% 0 in
01:49 56.3 °F 50 °F 30 in ENE 2 mph 5 mph 79% 0 in
01:54 55.9 °F 49.8 °F 30 in Este 2.3 mph 5 mph 79.8% 0 in
01:59 55.8 °F 50 °F 29.9 in Este 2.4 mph 5 mph 80.6% 0 in
02:04 55.8 °F 49.8 °F 29.9 in ESE 1.7 mph 4.7 mph 81% 0 in
02:09 55.6 °F 50 °F 29.9 in SE 1.4 mph 5.4 mph 81.4% 0 in
02:14 55.2 °F 49.8 °F 29.9 in ESE 2.1 mph 6 mph 82% 0 in
02:19 55.2 °F 49.8 °F 29.9 in ESE 2.4 mph 6 mph 82% 0 in
02:24 55.2 °F 49.8 °F 29.9 in SSE 2 mph 5.9 mph 82% 0 in
02:29 55.2 °F 49.8 °F 29.9 in SSE 1.8 mph 6.2 mph 82% 0 in
02:34 55.2 °F 49.8 °F 29.9 in Sur 3 mph 6 mph 82% 0 in
02:39 55.2 °F 49.8 °F 29.9 in SSO 3.6 mph 6 mph 82% 0 in
02:44 55.2 °F 49.6 °F 29.9 in Sur 3.6 mph 6 mph 81.3% 0 in
02:49 55.2 °F 49.5 °F 29.9 in SSE 3.6 mph 5.2 mph 81% 0 in
02:54 55 °F 49.5 °F 29.9 in Sur 3.2 mph 5 mph 81.4% 0 in
02:59 55 °F 49.6 °F 29.9 in Sur 3.1 mph 5.2 mph 82% 0 in
03:04 54.9 °F 49.5 °F 29.9 in SSO 3 mph 5 mph 82% 0 in
03:09 55 °F 49.6 °F 29.9 in Oeste 2.9 mph 5 mph 81.9% 0 in
03:14 55 °F 49.3 °F 29.9 in OSO 2.1 mph 4 mph 81% 0 in
03:19 55 °F 49.3 °F 29.9 in SO 1.8 mph 4 mph 81% 0 in
03:24 54.9 °F 49.1 °F 29.9 in SO 1.8 mph 4.6 mph 81% 0 in
03:29 54.9 °F 49.5 °F 29.9 in SSO 1.8 mph 5 mph 81.9% 0 in
03:34 54.7 °F 49.3 °F 29.9 in SSE 2.5 mph 5 mph 82% 0 in
03:39 54.7 °F 49.3 °F 29.9 in Sur 2.9 mph 5 mph 82% 0 in
03:44 54.7 °F 49.3 °F 29.9 in SO 2.9 mph 6.2 mph 82% 0 in
03:49 54.9 °F 49.3 °F 29.9 in SO 2.9 mph 6.2 mph 81.5% 0 in
03:54 54.9 °F 49.1 °F 29.9 in SO 3.6 mph 6.9 mph 81% 0 in
03:59 54.9 °F 49.1 °F 29.9 in SO 4 mph 7 mph 81% 0 in
04:04 54.9 °F 48.9 °F 29.9 in SO 4.2 mph 7 mph 80.6% 0 in
04:09 54.9 °F 48.7 °F 29.9 in SO 4.3 mph 6.2 mph 80% 0 in
04:14 54.9 °F 48.7 °F 29.9 in OSO 4.1 mph 6 mph 80% 0 in
04:19 54.9 °F 48.7 °F 29.9 in OSO 4 mph 5 mph 80% 0 in
04:24 54.7 °F 48.6 °F 29.9 in OSO 2.5 mph 4 mph 80% 0 in
04:29 54.7 °F 48.6 °F 29.9 in OSO 1.8 mph 2.4 mph 80% 0 in
04:34 54.1 °F 48.2 °F 29.9 in Sur 0.6 mph 2.9 mph 80% 0 in
04:39 53.8 °F 47.8 °F 29.9 in Calm   5.2 mph 80.4% 0 in
04:44 53.2 °F 47.8 °F 29.9 in OSO 1.6 mph 5.2 mph 81.8% 0 in
04:49 53.1 °F 48.2 °F 29.9 in OSO 2.4 mph 5.9 mph 83.5% 0 in
04:54 53.4 °F 48.6 °F 29.9 in OSO 3.2 mph 6.9 mph 83.9% 0 in
04:59 54 °F 48.7 °F 29.9 in OSO 3.6 mph 7 mph 82.7% 0 in
05:04 54.1 °F 48.7 °F 29.9 in SO 4.1 mph 6 mph 82% 0 in
05:09 54.1 °F 48.6 °F 29.9 in Sur 4.3 mph 6 mph 81.3% 0 in
05:14 54.1 °F 48.4 °F 29.9 in Sur 3.5 mph 5 mph 81% 0 in
05:19 54 °F 48.4 °F 29.9 in Oeste 3.1 mph 5 mph 81% 0 in
05:24 54 °F 48.2 °F 29.9 in SO 2 mph 5.9 mph 81% 0 in
05:29 53.2 °F 47.5 °F 29.9 in SSE 1.4 mph 8.5 mph 80.6% 0 in
05:34 52.3 °F 47.3 °F 29.9 in SSE 4 mph 10.7 mph 82.6% 0 in
05:39 52.2 °F 47.5 °F 29.9 in SSE 5.2 mph 13.8 mph 83.9% 0 in
05:44 51.8 °F 47.3 °F 29.9 in Sur 6.8 mph 14 mph 84.5% 0 in
05:49 51.8 °F 47.3 °F 29.9 in Sur 7.6 mph 12 mph 85% 0 in
05:54 52.2 °F 47.8 °F 29.9 in SSO 7.5 mph 11 mph 85% 0 in
05:59 52.7 °F 48.2 °F 29.9 in SSO 7.4 mph 9 mph 84.7% 0 in
06:04 53.2 °F 48.4 °F 29.9 in SO 5.8 mph 7 mph 83.5% 0 in
06:09 53.6 °F 48.2 °F 29.9 in OSO 5.2 mph 6.4 mph 82.2% 0 in
06:14 53.4 °F 47.7 °F 29.9 in Oeste 4.3 mph 7 mph 81.1% 0 in
06:19 53.1 °F 47.8 °F 29.9 in OSO 4 mph 9.2 mph 81.9% 0 in
06:24 52.9 °F 47.8 °F 29.9 in OSO 4.5 mph 10.7 mph 82.7% 0 in
06:29 52.5 °F 47.5 °F 29.9 in OSO 4.7 mph 11 mph 83% 0 in
06:34 52.5 °F 47.5 °F 29.9 in SO 5 mph 8 mph 83.1% 0 in
06:39 52.5 °F 47.7 °F 29.9 in SE 5.2 mph 6.9 mph 83.5% 0 in
06:44 52.5 °F 47.5 °F 29.9 in SSE 4.1 mph 7 mph 83% 0 in
06:49 52.3 °F 47.5 °F 29.9 in SSE 3.6 mph 9.2 mph 83.9% 0 in
06:54 52.2 °F 47.5 °F 29.9 in Sur 4.8 mph 10.4 mph 84% 0 in
06:59 52 °F 47.3 °F 29.9 in Sur 5.4 mph 10.4 mph 84% 0 in
07:04 51.6 °F 47.1 °F 29.9 in SSO 5.8 mph 9.2 mph 84.7% 0 in
07:09 51.8 °F 47.5 °F 29.9 in SSO 5.9 mph 9.7 mph 85% 0 in
07:14 52.2 °F 47.7 °F 29.9 in SSO 6.1 mph 10 mph 85% 0 in
07:19 52.2 °F 47.5 °F 29.9 in SSO 6.2 mph 9 mph 84% 0 in
07:24 52.2 °F 47.5 °F 29.9 in Sur 5.2 mph 7 mph 84% 0 in
07:29 52.3 °F 47.7 °F 29.9 in Sur 4.7 mph 5 mph 84.3% 0 in
07:34 52.5 °F 47.7 °F 29.9 in SSO 3.1 mph 5 mph 84% 0 in
07:39 52.5 °F 47.8 °F 29.9 in SO 2.4 mph 5 mph 84% 0 in
07:44 52.5 °F 47.8 °F 29.9 in SO 2 mph 3.5 mph 83.7% 0 in
07:49 52.5 °F 47.5 °F 29.9 in OSO 1.8 mph 5.2 mph 83% 0 in
07:54 52.5 °F 47.5 °F 29.9 in Oeste 2.5 mph 5 mph 83% 0 in
07:59 52.3 °F 47.3 °F 29.9 in OSO 2.9 mph 5.2 mph 83% 0 in
08:04 52.2 °F 47.3 °F 29.9 in Oeste 3 mph 5 mph 83% 0 in
08:09 52.2 °F 47.5 °F 29.9 in OSO 3.1 mph 5.2 mph 83.7% 0 in
08:14 52.2 °F 47.5 °F 29.9 in OSO 3.4 mph 5.2 mph 84% 0 in
08:19 52.2 °F 47.5 °F 29.9 in OSO 3.6 mph 5.2 mph 84% 0 in
08:24 52.3 °F 47.5 °F 29.9 in OSO 3.2 mph 5 mph 83.9% 0 in
08:29 52.3 °F 47.7 °F 29.9 in SO 3.1 mph 5 mph 84% 0 in
08:34 52.7 °F 47.8 °F 29.9 in Sur 3 mph 5 mph 83.3% 0 in
08:39 53.1 °F 48 °F 29.9 in Sur 2.9 mph 5 mph 83% 0 in
08:44 53.2 °F 48 °F 29.9 in SSE 2.9 mph 5 mph 82.2% 0 in
08:49 53.4 °F 48.2 °F 29.9 in SSE 2.9 mph 2 mph 82% 0 in
08:54 53.8 °F 48.2 °F 29.9 in SSE 0.9 mph 3.1 mph 81.6% 0 in
08:59 53.8 °F 48 °F 29.9 in Calm   3.6 mph 81% 0 in
09:04 54 °F 48.2 °F 29.9 in SSE 1.3 mph 4 mph 81% 0 in
09:09 54 °F 48.4 °F 29.9 in SSE 1.8 mph 3.1 mph 81% 0 in
09:14 54.1 °F 48.2 °F 29.9 in SSE 1.6 mph 4.6 mph 80.4% 0 in
09:19 54.1 °F 48 °F 29.9 in Sur 1.4 mph 5 mph 80% 0 in
09:24 54.3 °F 48.2 °F 29.9 in Sur 2.1 mph 5 mph 80% 0 in
09:29 54.5 °F 48.6 °F 29.9 in SSO 2.4 mph 3.5 mph 80% 0 in
09:34 54.9 °F 48.7 °F 29.9 in SO 2 mph 3.5 mph 80% 0 in
09:39 55 °F 48.9 °F 29.9 in SO 1.8 mph 3.6 mph 80% 0 in
09:44 55.4 °F 49.1 °F 29.9 in SO 1.9 mph 4.6 mph 79.3% 0 in
09:49 55.6 °F 49.1 °F 29.9 in SO 2 mph 5.9 mph 78.7% 0 in
09:54 55.8 °F 48.9 °F 30 in SO 2.7 mph 6 mph 78% 0 in
09:59 55.9 °F 49.3 °F 30 in SSO 3.1 mph 5.8 mph 78% 0 in
10:04 56.3 °F 49.5 °F 30 in SSO 3.1 mph 6 mph 77.3% 0 in
10:09 56.8 °F 49.5 °F 30 in Sur 3.1 mph 5.8 mph 76.4% 0 in
10:14 57.6 °F 49.5 °F 30 in SSO 3.1 mph 6 mph 74.9% 0 in
10:19 57.7 °F 49.6 °F 30 in SSO 3.1 mph 5.8 mph 74% 0 in
10:24 58.3 °F 49.8 °F 30 in Sur 3.5 mph 6.9 mph 73.3% 0 in
10:29 59 °F 50 °F 30 in SSE 3.6 mph 7 mph 72.1% 0 in
10:34 59.5 °F 50 °F 30 in SSO 4.3 mph 7 mph 70.8% 0 in
10:39 59.9 °F 50.2 °F 30 in SSO 4.7 mph 7 mph 70% 0 in
10:44 60.4 °F 50 °F 30 in Sur 4.4 mph 8.7 mph 68.8% 0 in
10:49 60.8 °F 50 °F 30 in SSO 4.3 mph 9.2 mph 67.4% 0 in
10:54 61.3 °F 50.2 °F 30 in Sur 4.3 mph 7 mph 66.7% 0 in
10:59 62.1 °F 50 °F 30 in Sur 4.3 mph 6.9 mph 64.8% 0 in
11:04 62.4 °F 50.2 °F 30 in Sur 4.1 mph 7 mph 64% 0 in
11:09 63 °F 50.5 °F 30 in Sur 4 mph 9.2 mph 63.9% 0 in
11:14 63.1 °F 50.5 °F 30 in Sur 4.8 mph 9 mph 63.7% 0 in
11:19 63.1 °F 50.5 °F 30 in Sur 5.2 mph 8.1 mph 63.3% 0 in
11:24 63.5 °F 50.5 °F 30 in Sur 4.6 mph 8.1 mph 62.8% 0 in
11:29 63.9 °F 50.2 °F 30 in SSO 4.3 mph 8.1 mph 61.2% 0 in
11:34 63.9 °F 50.2 °F 30 in SSO 4.9 mph 8.1 mph 61% 0 in
11:39 64 °F 50.2 °F 30 in SSO 5.2 mph 9.2 mph 60.6% 0 in
11:44 64.2 °F 50.2 °F 30 in SSO 4.6 mph 9 mph 60.2% 0 in
11:49 64.4 °F 50.2 °F 30 in SSO 4.3 mph 8.1 mph 59.9% 0 in
11:54 64.8 °F 50.5 °F 30 in SSO 3.8 mph 8 mph 60% 0 in
11:59 64.9 °F 50.4 °F 29.9 in SO 3.6 mph 6 mph 59% 0 in
12:04 65.3 °F 50.2 °F 29.9 in OSO 3.6 mph 7.6 mph 57.9% 0 in
12:09 65.3 °F 49.8 °F 29.9 in SO 3.6 mph 8.1 mph 57% 0 in
12:14 65.5 °F 49.8 °F 29.9 in SSO 4.3 mph 8.1 mph 57% 0 in
12:19 65.7 °F 49.5 °F 29.9 in SO 4.7 mph 8.1 mph 56.1% 0 in
12:24 65.8 °F 49.6 °F 29.9 in OSO 4.7 mph 8 mph 56% 0 in
12:29 66 °F 49.8 °F 29.9 in SO 4.7 mph 7 mph 56% 0 in
12:34 66.4 °F 50 °F 29.9 in SO 4.2 mph 8.1 mph 55.9% 0 in
12:39 66.6 °F 50 °F 29.9 in SO 4 mph 8.1 mph 55% 0 in
12:44 66.7 °F 50.2 °F 29.9 in SSO 4.8 mph 8.1 mph 55.3% 0 in
12:49 66.7 °F 50.4 °F 29.9 in Sur 5.2 mph 8.5 mph 55.5% 0 in
12:54 66.9 °F 50 °F 29.9 in Sur 5.3 mph 9.2 mph 54.7% 0 in
12:59 66.9 °F 50 °F 29.9 in Sur 5.4 mph 9 mph 54.5% 0 in
13:04 67.1 °F 50 °F 29.9 in SSO 5.3 mph 7 mph 54% 0 in
13:09 67.3 °F 50 °F 29.9 in Sur 5.2 mph 10.2 mph 53.8% 0 in
13:14 67.6 °F 49.8 °F 29.9 in SSO 4.8 mph 10.4 mph 53% 0 in
13:19 67.6 °F 49.8 °F 29.9 in SSO 4.7 mph 10 mph 52.8% 0 in
13:24 68 °F 49.6 °F 29.9 in Sur 4.4 mph 7 mph 52% 0 in
13:29 68.4 °F 49.1 °F 29.9 in OSO 4.3 mph 9.2 mph 50.6% 0 in
13:34 68.5 °F 49.5 °F 29.9 in SO 4.1 mph 9 mph 50.6% 0 in
13:39 68.9 °F 49.6 °F 29.9 in Oeste 4 mph 7 mph 50% 0 in
13:44 69.1 °F 49.3 °F 29.9 in OSO 3.7 mph 9.2 mph 49.4% 0 in
13:49 69.3 °F 49.1 °F 29.9 in Oeste 3.6 mph 9.2 mph 49% 0 in
13:54 69.3 °F 49.3 °F 29.9 in Oeste 4.8 mph 10.7 mph 49% 0 in
13:59 69.3 °F 49.3 °F 29.9 in OSO 5.4 mph 11 mph 49% 0 in
14:04 69.4 °F 49.1 °F 29.9 in Oeste 5.8 mph 9.7 mph 48.5% 0 in
14:09 69.4 °F 49.5 °F 29.9 in ONO 5.9 mph 10 mph 49% 0 in
14:14 69.6 °F 49.5 °F 29.9 in ONO 5.1 mph 8.5 mph 48.9% 0 in
14:19 69.6 °F 49.5 °F 29.9 in ONO 4.7 mph 9 mph 48.6% 0 in
14:24 69.8 °F 49.5 °F 29.9 in Oeste 5 mph 9.2 mph 48.3% 0 in
14:29 69.8 °F 49.3 °F 29.9 in OSO 5.2 mph 9 mph 48% 0 in
14:34 70.2 °F 49.5 °F 29.9 in Oeste 5.2 mph 9.2 mph 48.1% 0 in
14:39 70.3 °F 49.5 °F 29.9 in OSO 5.2 mph 9 mph 47.7% 0 in
14:44 70.3 °F 49.3 °F 29.9 in Oeste 4.6 mph 8 mph 47.2% 0 in
14:49 70.3 °F 49.3 °F 29.9 in SO 4.3 mph 8.1 mph 47.3% 0 in
14:54 70.5 °F 49.3 °F 29.9 in SSO 4.3 mph 8 mph 47% 0 in
14:59 70.5 °F 49.3 °F 29.9 in SO 4.3 mph 7 mph 47% 0 in
15:04 70.9 °F 49.6 °F 29.9 in OSO 4.1 mph 7 mph 47% 0 in
15:09 71.1 °F 49.6 °F 29.9 in SO 4 mph 6 mph 47% 0 in
15:14 71.2 °F 49.8 °F 29.9 in SO 3.4 mph 6.9 mph 46.8% 0 in
15:19 71.4 °F 49.6 °F 29.9 in SSE 3.1 mph 7 mph 46% 0 in
15:24 71.4 °F 49.8 °F 29.9 in SO 2.6 mph 5 mph 46.4% 0 in
15:29 71.4 °F 50.2 °F 29.8 in OSO 2.4 mph 4 mph 47% 0 in
15:34 71.4 °F 50 °F 29.8 in Oeste 2.1 mph 3 mph 46.7% 0 in
15:39 71.6 °F 49.1 °F 29.8 in SO 2 mph 7.6 mph 45.1% 0 in
15:44 71.4 °F 48.4 °F 29.8 in SSO 2.6 mph 8.1 mph 44% 0 in
15:49 71.4 °F 48.7 °F 29.8 in SSO 2.9 mph 6 mph 44.4% 0 in
15:54 71.4 °F 48.4 °F 29.8 in SSO 3.4 mph 6.9 mph 44% 0 in
15:59 71.2 °F 48.7 °F 29.8 in SSO 3.6 mph 8.1 mph 44.7% 0 in
16:04 71.2 °F 48.7 °F 29.8 in Sur 4.4 mph 8.1 mph 45% 0 in
16:09 71.1 °F 49.3 °F 29.8 in Sur 4.7 mph 8 mph 46% 0 in
16:14 71.1 °F 49.3 °F 29.8 in Sur 4.2 mph 6 mph 46% 0 in
16:19 71.1 °F 49.1 °F 29.8 in SSE 4 mph 6 mph 46% 0 in
16:24 70.9 °F 49.1 °F 29.8 in Sur 3.7 mph 6.9 mph 46% 0 in
16:29 70.9 °F 49.1 °F 29.8 in Sur 3.6 mph 7 mph 46% 0 in
16:34 70.9 °F 49.1 °F 29.8 in Sur 3.9 mph 6.2 mph 46% 0 in
16:39 70.9 °F 49.3 °F 29.8 in Sur 4 mph 7 mph 46.6% 0 in
16:44 70.7 °F 49.5 °F 29.8 in SSE 4 mph 7.4 mph 47% 0 in
16:49 70.5 °F 49.8 °F 29.8 in SSE 4 mph 7 mph 47.7% 0 in
16:54 70.3 °F 50 °F 29.8 in SSE 4.2 mph 7 mph 48.4% 0 in
16:59 70.2 °F 50.2 °F 29.8 in SSE 4.3 mph 6.2 mph 49% 0 in
17:04 70.2 °F 50.4 °F 29.8 in SSE 3.8 mph 6 mph 49.8% 0 in
17:09 70 °F 50.7 °F 29.8 in Sur 3.6 mph 6.2 mph 50.6% 0 in
17:14 69.6 °F 50.9 °F 29.8 in Sur 3.9 mph 6.2 mph 51.4% 0 in
17:19 69.6 °F 51.1 °F 29.8 in Sur 4 mph 6 mph 52% 0 in
17:24 69.4 °F 51.4 °F 29.8 in Sur 3.4 mph 6 mph 52.7% 0 in
17:29 69.3 °F 51.6 °F 29.8 in SE 3.1 mph 4.6 mph 53.3% 0 in
17:34 68.9 °F 52.5 °F 29.8 in SE 3 mph 5.8 mph 55.7% 0 in
17:39 68.5 °F 52.9 °F 29.8 in SE 2.9 mph 6 mph 57.5% 0 in
17:44 68.2 °F 52.9 °F 29.8 in SSE 3.4 mph 5 mph 58.3% 0 in
17:49 67.8 °F 52.9 °F 29.8 in Sur 3.6 mph 5.2 mph 59% 0 in
17:54 67.6 °F 53.1 °F 29.8 in SO 3.6 mph 5.4 mph 59.8% 0 in
17:59 67.5 °F 53.2 °F 29.8 in SO 3.6 mph 8.5 mph 60.6% 0 in
18:04 66.9 °F 53.6 °F 29.8 in SO 3.9 mph 9.7 mph 62.2% 0 in
18:09 66.4 °F 53.6 °F 29.8 in SO 4 mph 10.7 mph 63.5% 0 in
18:14 65.8 °F 53.2 °F 29.8 in SSO 4.5 mph 12.3 mph 64% 0 in
18:19 65.3 °F 53.1 °F 29.8 in SSO 4.7 mph 16.1 mph 64.8% 0 in
18:24 64.9 °F 52.9 °F 29.8 in SO 6.7 mph 16 mph 65% 0 in
18:29 64.8 °F 53.1 °F 29.8 in SSO 7.6 mph 17.3 mph 66% 0 in
18:34 64.4 °F 53.1 °F 29.8 in SO 8.3 mph 17 mph 66.8% 0 in
18:39 64 °F 53.2 °F 29.8 in SSO 8.7 mph 16 mph 67.8% 0 in
18:44 63.9 °F 53.2 °F 29.8 in SSO 8 mph 14 mph 68.7% 0 in
18:49 63.5 °F 53.4 °F 29.8 in SSO 7.6 mph 11.5 mph 69.7% 0 in
18:54 63.1 °F 53.6 °F 29.8 in SSO 6.1 mph 12 mph 70.7% 0 in
18:59 63 °F 53.8 °F 29.8 in SSO 5.4 mph 11.8 mph 71.9% 0 in
19:04 63 °F 54.1 °F 29.8 in SSO 5.8 mph 12.3 mph 73% 0 in
19:09 62.8 °F 54.3 °F 29.8 in SSO 5.9 mph 12 mph 73.7% 0 in
19:14 62.8 °F 54.5 °F 29.8 in SO 5.4 mph 11 mph 74.4% 0 in
19:19 62.6 °F 54.7 °F 29.8 in SSO 5.2 mph 12.7 mph 75.3% 0 in
19:24 62.4 °F 54.9 °F 29.8 in Sur 5.7 mph 13 mph 76% 0 in
19:29 62.4 °F 54.9 °F 29.8 in Sur 5.9 mph 8 mph 76% 0 in
19:34 62.4 °F 54.9 °F 29.8 in SSO 4.6 mph 7 mph 76.6% 0 in
19:39 62.2 °F 54.9 °F 29.8 in SO 4 mph 9.2 mph 77% 0 in
19:44 62.1 °F 54.9 °F 29.8 in SO 4.2 mph 9 mph 77% 0 in
19:49 62.1 °F 55 °F 29.8 in OSO 4.3 mph 9.2 mph 77.8% 0 in
19:54 62.1 °F 55 °F 29.8 in SO 3.9 mph 9 mph 78% 0 in
19:59 61.9 °F 55 °F 29.8 in SO 3.6 mph 7 mph 78.3% 0 in
20:04 61.9 °F 55.2 °F 29.8 in SSO 3.6 mph 6 mph 79% 0 in
20:09 61.7 °F 55 °F 29.8 in SSO 3.6 mph 5 mph 79% 0 in
20:14 61.7 °F 55 °F 29.8 in SSO 2.5 mph 5 mph 79% 0 in
20:19 61.5 °F 54.9 °F 29.8 in SO 2 mph 5.4 mph 79% 0 in
20:24 61.5 °F 54.9 °F 29.8 in SSO 2.6 mph 7.4 mph 79% 0 in
20:29 61.3 °F 54.9 °F 29.8 in SSO 2.9 mph 7.4 mph 79% 0 in
20:34 61.3 °F 54.9 °F 29.8 in SSO 4.5 mph 8.5 mph 79.1% 0 in
20:39 61.2 °F 54.9 °F 29.8 in SO 5.2 mph 9 mph 80% 0 in
20:44 61.2 °F 54.9 °F 29.8 in Sur 4.8 mph 8 mph 80% 0 in
20:49 61 °F 54.9 °F 29.8 in Sur 4.7 mph 8.1 mph 80% 0 in
20:54 61 °F 54.7 °F 29.8 in Sur 4.7 mph 8.1 mph 80% 0 in
20:59 60.6 °F 54.5 °F 29.8 in Sur 4.7 mph 8 mph 80.1% 0 in
21:04 60.6 °F 54.9 °F 29.8 in SSO 4.2 mph 6.4 mph 81% 0 in
21:09 60.6 °F 54.7 °F 29.8 in SSO 4 mph 8.5 mph 81% 0 in
21:14 60.6 °F 54.7 °F 29.8 in SSO 4.5 mph 9.7 mph 81% 0 in
21:19 60.6 °F 54.5 °F 29.8 in SO 4.7 mph 10 mph 80.3% 0 in
21:24 60.6 °F 54.3 °F 29.8 in SSO 5 mph 10 mph 80% 0 in
21:29 60.6 °F 54.3 °F 29.8 in SSO 5.2 mph 7 mph 80% 0 in
21:34 60.6 °F 54.1 °F 29.8 in OSO 4.1 mph 7.4 mph 79.1% 0 in
21:39 60.6 °F 54.1 °F 29.8 in SO 3.6 mph 7 mph 79% 0 in
21:44 60.6 °F 54.1 °F 29.8 in SO 3.6 mph 6.2 mph 79% 0 in
21:49 60.6 °F 54.1 °F 29.8 in SO 3.6 mph 6.9 mph 79% 0 in
21:54 60.6 °F 54.1 °F 29.8 in SO 3.9 mph 7 mph 79% 0 in
21:59 60.6 °F 54.1 °F 29.8 in SSO 4 mph 8.1 mph 79% 0 in
22:04 60.6 °F 54.1 °F 29.8 in SSO 4 mph 8 mph 79% 0 in
22:09 60.4 °F 54 °F 29.8 in SSO 4 mph 8.5 mph 79% 0 in
22:14 60.3 °F 54 °F 29.8 in SSO 4.5 mph 10.7 mph 79.5% 0 in
22:19 60.3 °F 54.1 °F 29.8 in SSO 4.7 mph 11.2 mph 80% 0 in
22:24 60.3 °F 54.1 °F 29.8 in SSO 5.5 mph 12 mph 80% 0 in
22:29 60.1 °F 54 °F 29.8 in SO 5.9 mph 12 mph 80% 0 in
22:34 60.1 °F 54 °F 29.8 in SSO 5.9 mph 12.7 mph 80% 0 in
22:39 60.1 °F 53.8 °F 29.8 in SSO 5.9 mph 13 mph 80% 0 in
22:44 59.9 °F 53.8 °F 29.8 in SO 6.6 mph 12.7 mph 80% 0 in
22:49 59.9 °F 53.8 °F 29.8 in SSO 6.9 mph 13 mph 80% 0 in
22:54 59.7 °F 53.6 °F 29.8 in SSO 6.2 mph 8.1 mph 80.2% 0 in
22:59 59.7 °F 54 °F 29.8 in SSO 5.9 mph 11.4 mph 81% 0 in
23:04 59.7 °F 54 °F 29.8 in Sur 5.9 mph 12 mph 81% 0 in
23:09 59.5 °F 53.8 °F 29.8 in Sur 5.9 mph 12 mph 81% 0 in
23:14 59.4 °F 53.6 °F 29.8 in SSE 6.1 mph 10 mph 81% 0 in
23:19 58.8 °F 52.9 °F 29.8 in SSE 6.2 mph 9.2 mph 81% 0 in
23:24 58.1 °F 52.5 °F 29.8 in SSE 6.2 mph 9 mph 82.1% 0 in
23:29 57.7 °F 52.7 °F 29.8 in Sur 6.2 mph 9.2 mph 83.4% 0 in
23:34 57.7 °F 52.9 °F 29.8 in Sur 6 mph 9.2 mph 84% 0 in
23:39 57.7 °F 52.9 °F 29.8 in Sur 5.9 mph 9 mph 84% 0 in
23:44 57.9 °F 53.1 °F 29.8 in SSE 5.5 mph 8.5 mph 84% 0 in
23:49 57.9 °F 53.1 °F 29.8 in SSE 5.4 mph 10.4 mph 84% 0 in
23:54 57.7 °F 52.7 °F 29.8 in SE 6 mph 10 mph 83.3% 0 in
23:59 57.2 °F 52.2 °F 29.8 in SSE 6.2 mph 9 mph 83% 0 in
Murcia-Puente Tocinos, Espa?a
Compliments of Weather Underground - 3 mb

La estación de MeteoMurcia.com, publica sus datos en los siguientes proyectos:

Weather Underground PWS IMURCIAP2 Meteoclimatic www.awekas.at

W3Counter
Web Analytics